Accueil
METAR-TAF:

METAR-TAF

Aéroports :

Aéroport de Dortmund

Dortmund, Allemagne

latitude: 51-31N, longitude: 007-37E, altitude: 127 m

Observation

Le bulletin a été fait il y a 38 minutes, à 15:20 UTC
Vent 4 kt de ouest/sud-ouest
Température 1°C
Humidité 64%
Pression 1019 hPa
Visibilité 10 km ou plus
pas de nuages en-dessous de 1500 mètres et pas de cumulonimbus.

METAR: EDLW 211520Z 24004KT CAVOK 01/M05 Q1019

Heure: 16:58 (15:58 UTC)

Prévision

Le bulletin a été fait il y a 4 heures et 58 minutes, à 11:00 UTC
Prévision valable du 21 à 12 UTC au 22 à 12 UTC
Vent 3 kt de direction variable
Visibilité 10 km ou plus
pas de nuages en-dessous de 1500 mètres et pas de cumulonimbus.
Evoluant progressivement
du 21 à 16 UTC au 21 à 19 UTC
Vent 7 kt de sud
Evoluant progressivement
du 22 à 07 UTC au 22 à 10 UTC
Vent 12 kt de sud

TAF: EDLW 211100Z 2112/2212 VRB03KT CAVOK BECMG 2116/2119 19007KT BECMG 2207/2210 18012KT

Observations et prévisions météorologiques de plus de 4000 aéroports (messages METAR et TAF).

Les stations disponibles sont représentées par des disques jaunes et rouges sur la carte.

Passer la souris dessus pour voir le nom de la station.

Cliquer dessus pour voir les observations et prévisions météorologiques.

Pour changer de carte: cliquez sur les boutons verts avec une croix noire pour zoomer, sur le bouton vert avec un tiret pour effectuer un zoom arrière, ou sur les flèches vertes pour les cartes adjacentes.


METAR-TAF: